Terminal Aerodrome Forecast
Issued by NWS

Home | Current Version | Previous Version | Text Only | Print | Product List | Glossary On
Versions: 1 2 3 4 5 6 7 8 9 10 11 12 13 14 15 16 17 18 19 20 21
185
FTUS41 KCAR 122337
TAFBHB
TAF
KBHB 122337Z 1300/1324 VRB03KT P6SM SCT060
     FM130400 11008KT P6SM OVC040
     FM130600 11008KT 2SM -SN BR OVC025
     FM130800 08010KT 1SM -SN BR OVC015
     FM131200 08010KT 3/4SM -SN BR OVC006
     FM131400 05012KT 1/2SM SN FZFG OVC003
     FM131800 36012G20KT 1/2SM SN FZFG OVC006
      AMD LTD TO CLD VIS AND WIND=

USA.gov is the U.S. government's official web portal to all federal, state and local government web resources and services.